Time;durP1;ratioP1;P1;durP2;ratioP2;P2;SDS_P1;SDS_P2;PMS_P1;PMS_P2;Temp;Humidity;BMP_temperature;BMP_pressure;BME280_temperature;BME280_humidity;BME280_pressure;Samples;Min_cycle;Max_cycle;Signal;HPM_P1;HPM_P2
2024/01/13 00:00:43;;;;;;;11.30;7.53;;;;;;;3.65;100.00;102104.81;6118582;23;20337;-90
2024/01/13 00:03:08;;;;;;;10.57;7.32;;;;;;;3.61;100.00;102113.34;6120567;23;19998;-89
2024/01/13 00:05:33;;;;;;;11.77;8.43;;;;;;;3.55;100.00;102113.34;6120539;23;19998;-90
2024/01/13 00:07:59;;;;;;;11.55;7.60;;;;;;;3.47;100.00;102109.97;6119131;23;20474;-89
2024/01/13 00:10:24;;;;;;;12.20;7.60;;;;;;;3.50;100.00;102109.13;6121798;23;20358;-87
2024/01/13 00:12:49;;;;;;;14.38;8.20;;;;;;;3.48;100.00;102100.59;6123838;23;20001;-87
2024/01/13 00:15:15;;;;;;;12.95;8.68;;;;;;;3.53;100.00;102104.84;6123351;23;20001;-89
2024/01/13 00:17:40;;;;;;;13.90;8.20;;;;;;;3.59;100.00;102106.56;6122129;23;20002;-89
2024/01/13 00:20:06;;;;;;;11.82;8.27;;;;;;;3.56;100.00;102093.78;6122159;23;20017;-89
2024/01/13 00:22:32;;;;;;;13.82;8.68;;;;;;;3.30;100.00;102104.88;6124079;23;20006;-89
2024/01/13 00:24:57;;;;;;;16.00;8.63;;;;;;;3.36;100.00;102104.00;6123620;23;21580;-89
2024/01/13 00:27:22;;;;;;;13.20;8.52;;;;;;;3.28;100.00;102098.91;6123790;23;20002;-90
2024/01/13 00:29:47;;;;;;;12.88;8.68;;;;;;;3.39;100.00;102102.31;6123079;23;20620;-89
2024/01/13 00:32:13;;;;;;;13.57;9.50;;;;;;;3.49;100.00;102103.16;6123600;23;20013;-89
2024/01/13 00:34:38;;;;;;;12.27;8.60;;;;;;;3.51;100.00;102110.81;6123405;23;20001;-89
2024/01/13 00:37:04;;;;;;;12.85;8.05;;;;;;;3.41;100.00;102100.63;6124004;23;20001;-89
2024/01/13 00:39:29;;;;;;;10.65;7.65;;;;;;;3.51;100.00;102106.56;6123558;23;20005;-89
2024/01/13 00:41:54;;;;;;;14.18;7.72;;;;;;;3.49;100.00;102097.19;6121600;23;20013;-90
2024/01/13 00:44:19;;;;;;;11.73;7.30;;;;;;;3.54;100.00;102093.78;6123693;23;20056;-90
2024/01/13 00:46:45;;;;;;;10.18;7.53;;;;;;;3.49;100.00;102087.84;6123310;23;20491;-91
2024/01/13 00:49:10;;;;;;;12.02;8.10;;;;;;;3.52;100.00;102087.00;6123651;23;20002;-90
2024/01/13 00:51:35;;;;;;;13.20;8.65;;;;;;;3.48;100.00;102085.28;6121952;23;20025;-91
2024/01/13 00:54:01;;;;;;;12.25;8.63;;;;;;;3.54;100.00;102080.19;6123031;23;19998;-90
2024/01/13 00:56:26;;;;;;;12.75;8.25;;;;;;;3.30;100.00;102079.34;6123326;23;20006;-90
2024/01/13 00:58:52;;;;;;;12.10;7.72;;;;;;;3.27;100.00;102084.47;6122568;23;20055;-90
2024/01/13 01:01:17;;;;;;;12.15;8.77;;;;;;;3.41;100.00;102079.34;6122570;23;20013;-90
2024/01/13 01:03:43;;;;;;;13.07;8.60;;;;;;;3.47;100.00;102073.38;6123087;23;20002;-90
2024/01/13 01:06:08;;;;;;;13.02;7.72;;;;;;;3.42;100.00;102071.69;6123038;23;20002;-90
2024/01/13 01:08:33;;;;;;;13.75;8.07;;;;;;;3.45;100.00;102064.88;6122879;23;20006;-90
2024/01/13 01:10:59;;;;;;;11.85;7.88;;;;;;;3.46;100.00;102061.47;6122759;23;20092;-91
2024/01/13 01:13:24;;;;;;;14.13;8.48;;;;;;;3.49;100.00;102056.34;6122112;23;20433;-89
2024/01/13 01:15:50;;;;;;;12.90;7.57;;;;;;;3.34;100.00;102044.47;6121944;23;20002;-90
2024/01/13 01:18:15;;;;;;;11.35;7.40;;;;;;;3.23;100.00;102039.38;6123107;23;20002;-90
2024/01/13 01:20:40;;;;;;;13.63;7.88;;;;;;;3.43;100.00;102031.69;6122503;23;20097;-90
2024/01/13 01:23:06;;;;;;;10.85;7.78;;;;;;;3.33;100.00;102025.75;6121321;23;20030;-90
2024/01/13 01:25:31;;;;;;;13.00;8.30;;;;;;;3.27;100.00;102030.00;6120902;23;20008;-90
2024/01/13 01:27:56;;;;;;;13.63;8.68;;;;;;;3.36;100.00;102020.63;6120875;23;20048;-90
2024/01/13 01:30:22;;;;;;;12.68;7.88;;;;;;;3.32;100.00;102013.84;6121130;23;20010;-90
2024/01/13 01:32:49;;;;;;;18.02;8.93;;;;;;;3.35;100.00;102021.50;6120946;23;20055;-90
2024/01/13 01:35:14;;;;;;;12.55;8.63;;;;;;;3.32;100.00;102008.75;6117422;23;20088;-92
2024/01/13 01:37:40;;;;;;;13.75;9.20;;;;;;;3.34;100.00;102017.25;6120789;23;20041;-90
2024/01/13 01:40:07;;;;;;;12.02;8.88;;;;;;;3.33;100.00;102012.16;6121355;23;20371;-89
2024/01/13 01:42:33;;;;;;;13.35;8.93;;;;;;;3.26;100.00;102013.84;6118764;23;20085;-90
2024/01/13 01:44:58;;;;;;;15.05;9.57;;;;;;;3.08;100.00;102003.69;6119283;23;20093;-91
2024/01/13 01:47:25;;;;;;;14.23;9.50;;;;;;;3.08;100.00;102003.69;6121253;23;20317;-91
2024/01/13 01:49:51;;;;;;;15.35;10.70;;;;;;;2.91;100.00;101998.59;6120106;23;20444;-90
2024/01/13 01:52:16;;;;;;;12.95;8.05;;;;;;;3.01;100.00;101995.19;6120788;23;20044;-90
2024/01/13 01:54:43;;;;;;;13.88;8.88;;;;;;;3.02;100.00;101990.94;6121180;23;20009;-90
2024/01/13 01:57:13;;;;;;;15.40;9.70;;;;;;;3.12;100.00;101987.50;6119206;23;20385;-91
2024/01/13 01:59:39;;;;;;;15.77;10.23;;;;;;;3.12;100.00;101982.41;6121803;23;20002;-91
2024/01/13 02:02:07;;;;;;;16.38;10.48;;;;;;;3.15;100.00;101982.44;6120525;23;20002;-90
2024/01/13 02:04:32;;;;;;;14.98;10.35;;;;;;;3.21;100.00;101977.28;6118617;23;20006;-91
2024/01/13 02:06:58;;;;;;;16.73;10.38;;;;;;;3.21;100.00;101972.19;6119027;23;20013;-91
2024/01/13 02:09:24;;;;;;;15.80;11.55;;;;;;;3.19;100.00;101966.25;6121120;23;20060;-90
2024/01/13 02:11:49;;;;;;;15.88;11.23;;;;;;;3.15;100.00;101974.78;6120098;23;20013;-91
2024/01/13 02:14:14;;;;;;;19.95;13.27;;;;;;;3.06;100.00;101965.41;6120900;23;20006;-91
2024/01/13 02:16:40;;;;;;;16.33;11.85;;;;;;;3.14;100.00;101963.69;6120764;23;20036;-90
2024/01/13 02:19:05;;;;;;;16.05;11.63;;;;;;;3.09;100.00;101962.00;6121354;23;20052;-90
2024/01/13 02:21:31;;;;;;;14.18;10.43;;;;;;;3.09;100.00;101960.31;6119871;23;20014;-91
2024/01/13 02:23:56;;;;;;;16.42;11.63;;;;;;;3.09;100.00;101959.47;6120825;23;20108;-91
2024/01/13 02:26:21;;;;;;;17.48;11.35;;;;;;;3.04;100.00;101941.63;6120178;23;20024;-92
2024/01/13 02:28:47;;;;;;;17.10;12.88;;;;;;;3.01;100.00;101939.09;6120883;23;20026;-92
2024/01/13 02:31:14;;;;;;;17.95;12.68;;;;;;;3.17;100.00;101939.88;6120699;23;20016;-92
2024/01/13 02:33:39;;;;;;;17.35;12.05;;;;;;;3.04;100.00;101930.56;6120855;23;20030;-91
2024/01/13 02:36:05;;;;;;;16.58;12.15;;;;;;;2.83;100.00;101931.44;6119682;23;20009;-90
2024/01/13 02:38:30;;;;;;;14.43;11.38;;;;;;;2.84;100.00;101928.91;6120423;23;20006;-91
2024/01/13 02:40:55;;;;;;;16.90;12.93;;;;;;;2.78;100.00;101924.66;6120485;23;20045;-90
2024/01/13 02:43:21;;;;;;;21.85;13.57;;;;;;;2.73;100.00;101921.28;6118507;23;20436;-90
2024/01/13 02:45:46;;;;;;;17.90;12.65;;;;;;;2.52;100.00;101917.03;6119029;23;20098;-90
2024/01/13 02:48:18;;;;;;;22.70;13.30;;;;;;;2.62;100.00;101914.50;6121090;23;20016;-90
2024/01/13 02:51:01;;;;;;;15.63;12.55;;;;;;;2.89;100.00;101917.00;6120583;23;20081;-89
2024/01/13 02:53:28;;;;;;;17.15;12.57;;;;;;;2.85;100.00;101912.75;6120146;23;20005;-90
2024/01/13 02:55:53;;;;;;;17.48;12.52;;;;;;;2.82;100.00;101907.66;6120623;23;20083;-91
2024/01/13 02:58:18;;;;;;;16.52;13.27;;;;;;;2.78;100.00;101900.88;6119407;23;20006;-91
2024/01/13 03:00:44;;;;;;;17.77;13.52;;;;;;;2.90;100.00;101895.75;6121135;23;20006;-92
2024/01/13 03:03:09;;;;;;;17.05;12.75;;;;;;;2.92;100.00;101895.72;6120675;23;20368;-91
2024/01/13 03:05:34;;;;;;;18.00;12.95;;;;;;;2.86;100.00;101890.66;6120691;23;20073;-92
2024/01/13 03:08:00;;;;;;;22.55;14.15;;;;;;;2.73;100.00;101888.13;6120536;23;20009;-92
2024/01/13 03:10:26;;;;;;;20.70;14.48;;;;;;;2.69;100.00;101885.59;6121002;23;20002;-91
2024/01/13 03:12:51;;;;;;;19.65;14.55;;;;;;;2.57;100.00;101884.75;6120291;23;20006;-91
2024/01/13 03:15:17;;;;;;;20.52;14.63;;;;;;;2.55;100.00;101881.34;6120205;23;20002;-92
2024/01/13 03:17:42;;;;;;;21.90;14.75;;;;;;;2.64;100.00;101879.66;6120580;23;20002;-91
2024/01/13 03:20:09;;;;;;;18.42;12.10;;;;;;;2.67;100.00;101865.19;6118887;23;20056;-89
2024/01/13 03:22:34;;;;;;;20.67;13.52;;;;;;;2.57;100.00;101863.50;6120875;23;20009;-89
2024/01/13 03:25:00;;;;;;;18.67;14.30;;;;;;;2.63;100.00;101858.38;6118773;23;20033;-91
2024/01/13 03:27:25;;;;;;;17.10;14.00;;;;;;;2.61;100.00;101854.16;6121176;23;20371;-90
2024/01/13 03:29:51;;;;;;;21.02;14.40;;;;;;;2.72;100.00;101853.28;6120195;23;20025;-92
2024/01/13 03:32:16;;;;;;;17.40;13.45;;;;;;;2.63;100.00;101849.91;6119995;23;20006;-92
2024/01/13 03:34:41;;;;;;;25.02;14.70;;;;;;;2.50;100.00;101849.91;6118782;23;20029;-92
2024/01/13 03:37:07;;;;;;;20.10;13.60;;;;;;;2.53;100.00;101852.47;6119272;23;20059;-91
2024/01/13 03:39:32;;;;;;;21.95;14.57;;;;;;;2.72;100.00;101847.34;6119005;23;20002;-92
2024/01/13 03:41:58;;;;;;;17.42;13.70;;;;;;;2.64;100.00;101838.88;6119210;23;20016;-92
2024/01/13 03:44:23;;;;;;;17.67;13.75;;;;;;;2.73;100.00;101836.28;6118352;23;20060;-91
2024/01/13 03:46:49;;;;;;;16.83;13.88;;;;;;;2.80;100.00;101837.97;6119580;23;20006;-90
2024/01/13 03:49:15;;;;;;;19.20;13.55;;;;;;;2.78;100.00;101837.16;6120497;23;20458;-91
2024/01/13 03:51:40;;;;;;;19.50;13.75;;;;;;;2.68;100.00;101841.41;6119176;23;20002;-90
2024/01/13 03:54:05;;;;;;;19.33;14.90;;;;;;;2.60;100.00;101835.47;6120812;23;20064;-91
2024/01/13 03:56:31;;;;;;;19.30;13.60;;;;;;;2.48;100.00;101827.84;6119109;23;20487;-91
2024/01/13 03:58:56;;;;;;;17.23;13.68;;;;;;;2.48;100.00;101828.69;6118757;23;20037;-90
2024/01/13 04:01:22;;;;;;;18.33;14.32;;;;;;;2.61;100.00;101826.09;6120064;23;20006;-91
2024/01/13 04:03:47;;;;;;;20.88;13.40;;;;;;;2.46;100.00;101825.28;6120704;23;20413;-92
2024/01/13 04:06:12;;;;;;;18.90;13.88;;;;;;;2.65;100.00;101817.63;6120655;23;20009;-89
2024/01/13 04:08:38;;;;;;;19.50;13.60;;;;;;;2.60;100.00;101816.78;6118588;23;20492;-92
2024/01/13 04:11:08;;;;;;;19.35;15.35;;;;;;;2.50;100.00;101816.78;6118914;23;20032;-92
2024/01/13 04:13:33;;;;;;;20.33;14.48;;;;;;;2.60;100.00;101801.47;6118758;23;20010;-91
2024/01/13 04:15:58;;;;;;;21.67;14.85;;;;;;;2.73;100.00;101803.13;6118374;23;20142;-92
2024/01/13 04:18:24;;;;;;;19.75;15.98;;;;;;;2.80;100.00;101799.72;6120224;23;20009;-91
2024/01/13 04:20:49;;;;;;;23.02;16.73;;;;;;;2.62;100.00;101797.25;6120713;23;20002;-91
2024/01/13 04:23:14;;;;;;;24.08;16.42;;;;;;;2.76;100.00;101793.78;6120001;23;20006;-93
2024/01/13 04:25:41;;;;;;;23.45;16.20;;;;;;;2.65;100.00;101794.66;6120338;23;20476;-91
2024/01/13 04:28:07;;;;;;;23.63;15.63;;;;;;;2.77;100.00;101803.13;6118352;23;20051;-91
2024/01/13 04:30:33;;;;;;;17.75;14.52;;;;;;;2.75;100.00;101801.44;6119564;23;20073;-91
2024/01/13 04:32:58;;;;;;;20.60;15.32;;;;;;;2.64;100.00;101798.94;6119961;23;20095;-92
2024/01/13 04:35:23;;;;;;;22.20;14.95;;;;;;;2.69;100.00;101796.38;6120260;23;20006;-92
2024/01/13 04:37:49;;;;;;;19.27;14.60;;;;;;;2.49;100.00;101797.28;6120647;23;20006;-90
2024/01/13 04:40:14;;;;;;;19.88;15.25;;;;;;;2.65;100.00;101790.41;6120010;23;20427;-92
2024/01/13 04:42:39;;;;;;;23.55;16.02;;;;;;;2.63;100.00;101793.81;6118613;23;20003;-90
2024/01/13 04:45:06;;;;;;;19.67;15.60;;;;;;;2.73;100.00;101798.91;6119181;23;19998;-91
2024/01/13 04:47:31;;;;;;;22.60;17.27;;;;;;;2.67;100.00;101787.88;6120601;23;20006;-91
2024/01/13 04:49:56;;;;;;;24.40;17.42;;;;;;;2.82;100.00;101787.81;6120269;23;20006;-91
2024/01/13 04:52:22;;;;;;;23.73;18.63;;;;;;;2.79;100.00;101770.81;6120151;23;20030;-92
2024/01/13 04:54:47;;;;;;;21.50;16.27;;;;;;;2.71;100.00;101767.47;6119627;23;20029;-92
2024/01/13 04:57:12;;;;;;;27.85;17.77;;;;;;;2.62;100.00;101753.91;6119466;23;20028;-90
2024/01/13 04:59:38;;;;;;;26.80;17.92;;;;;;;2.67;100.00;101755.56;6119034;23;20013;-90
2024/01/13 05:02:03;;;;;;;27.40;18.83;;;;;;;2.48;100.00;101756.50;6121335;23;20010;-91
2024/01/13 05:04:28;;;;;;;27.20;18.83;;;;;;;2.70;100.00;101749.63;6121257;23;20013;-91
2024/01/13 05:06:54;;;;;;;25.77;18.55;;;;;;;2.62;100.00;101753.91;6121792;23;20010;-91
2024/01/13 05:09:20;;;;;;;27.10;19.38;;;;;;;2.68;100.00;101749.66;6120819;23;20002;-92
2024/01/13 05:11:45;;;;;;;27.58;20.35;;;;;;;2.67;100.00;101758.13;6121446;23;20014;-91
2024/01/13 05:14:11;;;;;;;28.85;20.48;;;;;;;2.49;100.00;101761.59;6120755;23;20010;-92
2024/01/13 05:16:36;;;;;;;28.88;19.77;;;;;;;2.55;100.00;101753.91;6121312;23;20005;-91
2024/01/13 05:19:02;;;;;;;27.40;19.95;;;;;;;2.57;100.00;101747.13;6120851;23;20071;-91
2024/01/13 05:21:27;;;;;;;28.25;19.88;;;;;;;2.63;100.00;101741.13;6121337;23;20420;-91
2024/01/13 05:23:53;;;;;;;31.45;22.35;;;;;;;2.62;100.00;101736.91;6119283;23;20090;-91
2024/01/13 05:26:18;;;;;;;30.30;21.17;;;;;;;2.67;100.00;101735.19;6119591;23;20041;-92
2024/01/13 05:28:44;;;;;;;31.50;20.65;;;;;;;2.55;100.00;101732.69;6120484;23;20010;-91
2024/01/13 05:31:09;;;;;;;35.13;21.77;;;;;;;2.74;100.00;101743.66;6119678;23;20013;-91
2024/01/13 05:33:34;;;;;;;32.22;21.00;;;;;;;2.82;100.00;101751.28;6121181;23;20358;-92
2024/01/13 05:36:00;;;;;;;36.22;21.98;;;;;;;2.74;100.00;101757.25;6119706;23;20014;-92
2024/01/13 05:38:26;;;;;;;29.73;20.05;;;;;;;2.73;100.00;101757.25;6120644;23;20037;-91
2024/01/13 05:40:51;;;;;;;32.13;21.17;;;;;;;2.74;100.00;101753.88;6121326;23;20329;-92
2024/01/13 05:43:18;;;;;;;31.40;20.55;;;;;;;2.71;100.00;101753.88;6120518;23;20017;-91
2024/01/13 05:45:43;;;;;;;32.92;21.45;;;;;;;2.68;100.00;101764.06;6121091;23;20089;-92
2024/01/13 05:48:09;;;;;;;36.08;22.13;;;;;;;2.67;100.00;101772.59;6120751;23;20034;-92
2024/01/13 05:50:34;;;;;;;33.13;21.63;;;;;;;2.84;100.00;101780.16;6121172;23;20002;-90
2024/01/13 05:53:00;;;;;;;32.53;22.70;;;;;;;2.68;100.00;101784.47;6119272;23;20496;-91
2024/01/13 05:55:25;;;;;;;32.88;21.95;;;;;;;2.62;100.00;101784.50;6121051;23;20021;-92
2024/01/13 05:57:50;;;;;;;30.58;21.48;;;;;;;2.58;100.00;101788.72;6118794;23;20379;-90
2024/01/13 06:00:16;;;;;;;36.33;24.50;;;;;;;2.70;100.00;101792.97;6119313;23;20090;-91
2024/01/13 06:02:43;;;;;;;35.15;23.00;;;;;;;2.66;100.00;101793.81;6120775;23;20009;-89
2024/01/13 06:05:09;;;;;;;32.67;22.00;;;;;;;2.61;100.00;101780.22;6120714;23;20008;-91
2024/01/13 06:07:34;;;;;;;33.50;21.80;;;;;;;2.60;100.00;101792.13;6119213;23;20041;-91
2024/01/13 06:09:59;;;;;;;36.47;24.05;;;;;;;2.65;100.00;101799.78;6121229;23;20009;-92
2024/01/13 06:12:27;;;;;;;41.60;24.63;;;;;;;2.55;100.00;101799.78;6121186;23;20073;-90
2024/01/13 06:14:52;;;;;;;36.75;22.85;;;;;;;2.48;100.00;101795.56;6120292;23;20077;-91
2024/01/13 06:17:17;;;;;;;33.40;22.60;;;;;;;2.40;100.00;101793.88;6121227;23;20087;-91
2024/01/13 06:19:43;;;;;;;38.03;24.05;;;;;;;2.44;100.00;101785.38;6120668;23;20055;-90
2024/01/13 06:22:09;;;;;;;38.05;24.20;;;;;;;2.32;100.00;101776.06;6121108;23;20367;-91
2024/01/13 06:24:34;;;;;;;38.10;22.13;;;;;;;2.28;100.00;101787.94;6120808;23;20013;-90
2024/01/13 06:27:00;;;;;;;35.15;21.75;;;;;;;2.35;100.00;101788.81;6121102;23;20006;-91
2024/01/13 06:29:25;;;;;;;33.90;23.27;;;;;;;2.27;100.00;101783.72;6120363;23;20310;-90
2024/01/13 06:31:51;;;;;;;32.83;21.60;;;;;;;2.07;100.00;101781.19;6121053;23;20006;-91
2024/01/13 06:34:16;;;;;;;31.70;21.55;;;;;;;2.16;100.00;101779.47;6118993;23;20086;-91
2024/01/13 06:36:41;;;;;;;34.47;20.55;;;;;;;2.18;100.00;101772.69;6119484;23;20009;-91
2024/01/13 06:39:07;;;;;;;31.85;20.50;;;;;;;2.09;100.00;101774.38;6119148;23;20013;-91
2024/01/13 06:41:32;;;;;;;31.60;21.00;;;;;;;2.00;100.00;101778.63;6119724;23;20084;-91
2024/01/13 06:43:57;;;;;;;33.03;20.50;;;;;;;1.83;100.00;101773.53;6120219;23;20425;-92
2024/01/13 06:46:23;;;;;;;31.42;18.75;;;;;;;1.80;100.00;101776.94;6121231;23;20048;-91
2024/01/13 06:48:48;;;;;;;34.58;20.70;;;;;;;1.99;100.00;101775.25;6120870;23;20036;-91
2024/01/13 06:51:14;;;;;;;32.10;19.52;;;;;;;2.08;100.00;101767.59;6121354;23;20006;-91
2024/01/13 06:53:40;;;;;;;32.45;19.05;;;;;;;2.04;100.00;101760.81;6119359;23;20460;-91
2024/01/13 06:56:05;;;;;;;36.33;21.27;;;;;;;1.88;100.00;101761.69;6121189;23;20010;-92
2024/01/13 06:58:31;;;;;;;35.47;19.08;;;;;;;1.82;100.00;101756.59;6119218;23;20002;-92
2024/01/13 07:00:56;;;;;;;29.48;18.38;;;;;;;1.89;100.00;101755.75;6119074;23;20013;-91
2024/01/13 07:03:21;;;;;;;27.13;16.83;;;;;;;2.01;100.00;101762.53;6121407;23;20005;-91
2024/01/13 07:05:47;;;;;;;32.20;17.33;;;;;;;1.99;100.00;101751.50;6119433;23;20449;-91
2024/01/13 07:08:12;;;;;;;27.23;17.13;;;;;;;1.89;100.00;101754.03;6121157;23;20036;-91
2024/01/13 07:10:38;;;;;;;27.65;17.33;;;;;;;1.71;100.00;101744.72;6120996;23;20374;-91
2024/01/13 07:13:03;;;;;;;29.73;17.08;;;;;;;1.91;100.00;101741.31;6120824;23;20002;-90
2024/01/13 07:15:28;;;;;;;24.92;15.20;;;;;;;1.88;100.00;101733.69;6121014;23;20006;-91
2024/01/13 07:17:54;;;;;;;25.20;14.60;;;;;;;1.68;100.00;101721.81;6121378;23;20002;-92
2024/01/13 07:20:19;;;;;;;27.73;14.98;;;;;;;1.55;100.00;101724.34;6120863;23;20006;-92
2024/01/13 07:22:44;;;;;;;23.23;14.60;;;;;;;1.65;100.00;101719.25;6121294;23;20002;-89
2024/01/13 07:25:10;;;;;;;19.90;11.68;;;;;;;1.44;100.00;101716.69;6120788;23;20067;-91
2024/01/13 07:27:35;;;;;;;25.55;14.27;;;;;;;1.22;100.00;101716.69;6120466;23;20421;-89
2024/01/13 07:30:01;;;;;;;21.83;12.13;;;;;;;1.37;100.00;101712.47;6120578;23;20365;-91
2024/01/13 07:32:27;;;;;;;28.40;15.43;;;;;;;1.51;100.00;101703.13;6119592;23;20038;-91
2024/01/13 07:34:52;;;;;;;20.00;12.10;;;;;;;1.49;100.00;101694.66;6120508;23;20062;-90
2024/01/13 07:37:18;;;;;;;20.50;11.77;;;;;;;1.45;100.00;101693.81;6120582;23;20013;-91
2024/01/13 07:39:43;;;;;;;22.20;12.35;;;;;;;1.37;100.00;101692.97;6120979;23;20013;-91
2024/01/13 07:42:09;;;;;;;17.05;10.60;;;;;;;1.44;100.00;101687.03;6120138;23;20010;-91
2024/01/13 07:44:34;;;;;;;19.58;10.95;;;;;;;1.44;100.00;101692.13;6118867;23;20010;-90
2024/01/13 07:47:03;;;;;;;19.00;10.77;;;;;;;1.47;100.00;101699.75;6121139;23;20012;-91
2024/01/13 07:49:28;;;;;;;17.98;11.32;;;;;;;1.32;100.00;101703.97;6120880;23;20002;-88
2024/01/13 07:51:54;;;;;;;17.38;10.43;;;;;;;1.44;100.00;101698.88;6120740;23;20060;-91
2024/01/13 07:54:20;;;;;;;16.58;10.98;;;;;;;1.44;100.00;101697.22;6120282;23;20009;-91
2024/01/13 07:56:46;;;;;;;20.35;10.75;;;;;;;1.41;100.00;101702.25;6120620;23;20135;-89
2024/01/13 07:59:12;;;;;;;20.13;11.45;;;;;;;1.38;100.00;101699.72;6118178;23;20005;-91
2024/01/13 08:01:38;;;;;;;21.67;12.27;;;;;;;1.36;100.00;101708.22;6119051;23;20424;-90
2024/01/13 08:04:03;;;;;;;17.48;10.77;;;;;;;1.26;100.00;101707.34;6120801;23;20409;-91
2024/01/13 08:06:29;;;;;;;20.70;10.98;;;;;;;1.22;100.00;101686.16;6120341;23;20028;-91
2024/01/13 08:08:55;;;;;;;22.73;12.57;;;;;;;1.30;100.00;101687.88;6120228;23;20397;-91
2024/01/13 08:11:20;;;;;;;23.45;12.20;;;;;;;1.41;100.00;101687.00;6120667;23;20053;-91
2024/01/13 08:13:46;;;;;;;20.58;11.93;;;;;;;1.38;100.00;101688.72;6119745;23;20421;-91
2024/01/13 08:16:11;;;;;;;21.85;12.32;;;;;;;1.30;100.00;101686.16;6120125;23;20002;-92
2024/01/13 08:18:36;;;;;;;18.70;11.02;;;;;;;1.34;100.00;101679.38;6118768;23;20006;-91
2024/01/13 08:21:02;;;;;;;20.92;12.13;;;;;;;1.39;100.00;101662.41;6120377;23;20017;-92
2024/01/13 08:23:27;;;;;;;21.00;10.98;;;;;;;1.32;100.00;101675.97;6118581;23;20010;-93
2024/01/13 08:25:53;;;;;;;23.17;11.27;;;;;;;1.22;100.00;101672.56;6118628;23;20333;-92
2024/01/13 08:28:18;;;;;;;19.58;11.95;;;;;;;1.12;100.00;101671.72;6118581;23;20386;-91
2024/01/13 08:30:45;;;;;;;18.38;11.55;;;;;;;1.17;100.00;101666.63;6119701;23;20010;-89
2024/01/13 08:33:11;;;;;;;19.48;12.32;;;;;;;1.37;100.00;101659.06;6120052;23;20010;-91
2024/01/13 08:35:36;;;;;;;19.73;11.10;;;;;;;1.22;100.00;101665.81;6121286;23;19998;-92
2024/01/13 08:38:01;;;;;;;21.33;12.43;;;;;;;1.37;100.00;101671.78;6120420;23;20013;-91
2024/01/13 08:40:27;;;;;;;17.60;10.68;;;;;;;1.26;100.00;101670.03;6121019;23;20080;-91
2024/01/13 08:42:52;;;;;;;19.65;12.52;;;;;;;1.38;100.00;101671.75;6119362;23;20502;-91
2024/01/13 08:45:23;;;;;;;18.95;11.70;;;;;;;1.47;100.00;101666.66;6121550;23;20006;-91
2024/01/13 08:47:48;;;;;;;24.90;12.40;;;;;;;1.43;100.00;101659.88;6120053;23;20013;-91
2024/01/13 08:50:14;;;;;;;20.40;11.98;;;;;;;1.44;100.00;101666.69;6121231;23;20002;-91
2024/01/13 08:52:40;;;;;;;19.88;12.18;;;;;;;1.28;100.00;101678.53;6121520;23;20059;-91
2024/01/13 08:55:06;;;;;;;15.77;10.43;;;;;;;1.34;100.00;101679.38;6120851;23;20002;-91
2024/01/13 08:57:31;;;;;;;20.63;11.90;;;;;;;1.39;100.00;101662.41;6119322;23;20066;-90
2024/01/13 08:59:57;;;;;;;19.48;11.85;;;;;;;1.34;100.00;101654.81;6120106;23;20014;-90
2024/01/13 09:02:22;;;;;;;23.42;12.52;;;;;;;1.42;100.00;101655.66;6119948;23;20010;-90
2024/01/13 09:04:47;;;;;;;18.88;11.43;;;;;;;1.25;100.00;101673.44;6120021;23;20094;-90
2024/01/13 09:07:13;;;;;;;18.55;11.70;;;;;;;1.27;100.00;101669.22;6119820;23;20006;-92
2024/01/13 09:09:38;;;;;;;20.60;11.50;;;;;;;1.17;100.00;101662.44;6119977;23;20073;-89
2024/01/13 09:12:04;;;;;;;19.35;11.13;;;;;;;1.26;100.00;101654.78;6121672;23;20013;-90
2024/01/13 09:14:29;;;;;;;18.95;12.85;;;;;;;1.42;100.00;101654.81;6119687;23;20006;-91
2024/01/13 09:16:54;;;;;;;21.75;11.15;;;;;;;1.55;100.00;101633.59;6120034;23;20333;-90
2024/01/13 09:19:20;;;;;;;19.60;12.40;;;;;;;1.51;100.00;101647.16;6121128;23;20006;-91
2024/01/13 09:21:45;;;;;;;19.27;11.40;;;;;;;1.37;100.00;101653.97;6120955;23;20010;-90
2024/01/13 09:24:11;;;;;;;17.48;10.80;;;;;;;1.45;100.00;101652.25;6119885;23;20667;-90
2024/01/13 09:26:43;;;;;;;22.52;12.05;;;;;;;1.56;100.00;101640.38;6120573;23;19998;-88
2024/01/13 09:29:08;;;;;;;18.70;11.02;;;;;;;1.52;100.00;101636.13;6118651;23;20002;-90
2024/01/13 09:31:34;;;;;;;19.83;12.77;;;;;;;1.59;100.00;101632.75;6121095;23;20094;-90
2024/01/13 09:33:59;;;;;;;17.13;11.32;;;;;;;1.77;100.00;101623.38;6120331;23;19997;-89
2024/01/13 09:36:24;;;;;;;20.48;12.50;;;;;;;1.68;100.00;101621.69;6121060;23;20013;-90
2024/01/13 09:38:50;;;;;;;19.30;11.48;;;;;;;1.66;100.00;101626.78;6119524;22;20252;-91
2024/01/13 09:41:16;;;;;;;22.73;12.63;;;;;;;1.71;100.00;101625.09;6121591;23;20008;-90
2024/01/13 09:44:01;;;;;;;21.95;12.38;;;;;;;1.73;100.00;101608.97;6119061;23;20013;-89
2024/01/13 09:46:29;;;;;;;23.27;12.18;;;;;;;1.76;100.00;101614.91;6120985;23;20455;-89
2024/01/13 09:48:56;;;;;;;19.77;11.95;;;;;;;1.78;100.00;101625.06;6121170;23;20360;-92
2024/01/13 09:51:22;;;;;;;19.17;11.90;;;;;;;2.00;100.00;101629.28;6121256;23;20002;-93
2024/01/13 09:53:54;;;;;;;19.88;11.73;;;;;;;1.85;100.00;101627.63;6119960;23;20009;-92
2024/01/13 09:56:24;;;;;;;20.23;12.30;;;;;;;1.86;100.00;101619.13;6119336;23;20006;-91
2024/01/13 09:58:50;;;;;;;23.02;13.65;;;;;;;1.84;100.00;101612.34;6118246;23;19998;-92
2024/01/13 10:01:15;;;;;;;18.75;11.07;;;;;;;1.85;100.00;101616.56;6120625;23;20012;-91
2024/01/13 10:03:41;;;;;;;18.95;12.02;;;;;;;1.87;100.00;101625.88;6121402;23;19998;-91
2024/01/13 10:06:07;;;;;;;20.58;11.35;;;;;;;1.97;100.00;101616.53;6120921;23;20436;-90
2024/01/13 10:08:33;;;;;;;20.77;11.63;;;;;;;1.96;100.00;101614.00;6120872;23;20013;-90
2024/01/13 10:11:00;;;;;;;19.25;11.88;;;;;;;1.97;100.00;101611.44;6120863;23;20006;-91
2024/01/13 10:13:26;;;;;;;19.30;11.13;;;;;;;2.05;100.00;101614.81;6118702;23;20425;-91
2024/01/13 10:15:51;;;;;;;21.00;11.95;;;;;;;2.06;100.00;101619.06;6120505;23;20119;-93
2024/01/13 10:18:18;;;;;;;18.95;12.20;;;;;;;2.16;100.00;101621.56;6121317;23;20005;-91
2024/01/13 10:20:44;;;;;;;20.02;12.57;;;;;;;2.17;100.00;101615.63;6121421;23;20037;-92
2024/01/13 10:23:11;;;;;;;19.67;11.02;;;;;;;2.31;100.00;101621.50;6121095;23;20417;-90
2024/01/13 10:25:36;;;;;;;21.70;12.07;;;;;;;2.26;100.00;101618.13;6120010;23;20024;-88
2024/01/13 10:28:02;;;;;;;20.25;12.07;;;;;;;2.21;100.00;101617.31;6119434;23;20369;-88
2024/01/13 10:30:27;;;;;;;19.65;12.07;;;;;;;2.41;100.00;101623.16;6120953;23;20006;-90
2024/01/13 10:32:53;;;;;;;22.95;13.07;;;;;;;2.48;100.00;101622.28;6120623;23;20006;-89
2024/01/13 10:35:20;;;;;;;17.98;11.98;;;;;;;2.53;100.00;101628.19;6120140;23;20033;-93
2024/01/13 10:37:46;;;;;;;19.25;12.07;;;;;;;2.42;100.00;101624.88;6120164;23;19998;-88
2024/01/13 10:40:11;;;;;;;21.35;11.90;;;;;;;2.28;100.00;101622.38;6120238;23;20052;-89
2024/01/13 10:42:38;;;;;;;23.05;12.82;;;;;;;2.60;100.00;101620.53;6118561;23;20006;-91
2024/01/13 10:45:09;;;;;;;21.35;11.98;;;;;;;2.71;100.00;101623.88;6120540;23;20528;-91
2024/01/13 10:47:36;;;;;;;;;;;;;;;2.80;100.00;101631.44;6120952;23;20002;-90
2024/01/13 10:50:01;;;;;;;20.30;11.43;;;;;;;2.61;100.00;101614.56;6119421;23;19916;-90
2024/01/13 10:52:38;;;;;;;18.15;12.32;;;;;;;2.71;100.00;101616.22;6120482;23;20092;-90
2024/01/13 10:55:06;;;;;;;20.70;11.45;;;;;;;2.79;100.00;101609.38;6119725;23;20009;-89
2024/01/13 10:57:33;;;;;;;22.17;11.57;;;;;;;2.68;100.00;101613.66;6119159;23;19998;-90
2024/01/13 10:59:59;;;;;;;19.80;12.13;;;;;;;2.73;100.00;101611.94;6119933;23;20002;-89
2024/01/13 11:02:26;;;;;;;20.88;12.55;;;;;;;2.47;100.00;101602.75;6118926;23;20017;-90
2024/01/13 11:04:52;;;;;;;18.00;12.00;;;;;;;2.47;100.00;101602.75;6120990;23;20009;-93